sensor_id;sensor_type;location;lat;lon;timestamp;P1;durP1;ratioP1;P2;durP2;ratioP2
74465;SDS011;62916;50.044;15.938;2023-09-08T00:01:55;4.10;;;3.10;;
74465;SDS011;62916;50.044;15.938;2023-09-08T00:04:26;4.50;;;3.30;;
74465;SDS011;62916;50.044;15.938;2023-09-08T00:06:57;6.00;;;3.30;;
74465;SDS011;62916;50.044;15.938;2023-09-08T00:09:28;3.40;;;3.10;;
74465;SDS011;62916;50.044;15.938;2023-09-08T00:11:59;3.40;;;3.10;;
74465;SDS011;62916;50.044;15.938;2023-09-08T00:14:30;3.60;;;3.30;;
74465;SDS011;62916;50.044;15.938;2023-09-08T00:17:01;4.80;;;3.00;;
74465;SDS011;62916;50.044;15.938;2023-09-08T00:19:33;4.30;;;3.60;;
74465;SDS011;62916;50.044;15.938;2023-09-08T00:22:04;4.00;;;3.50;;
74465;SDS011;62916;50.044;15.938;2023-09-08T00:24:35;3.40;;;3.10;;
74465;SDS011;62916;50.044;15.938;2023-09-08T00:27:06;4.40;;;4.00;;
74465;SDS011;62916;50.044;15.938;2023-09-08T00:29:37;4.70;;;3.20;;
74465;SDS011;62916;50.044;15.938;2023-09-08T00:32:08;3.50;;;3.20;;
74465;SDS011;62916;50.044;15.938;2023-09-08T00:34:39;4.00;;;3.10;;
74465;SDS011;62916;50.044;15.938;2023-09-08T00:37:11;3.90;;;3.40;;
74465;SDS011;62916;50.044;15.938;2023-09-08T00:39:41;4.50;;;4.00;;
74465;SDS011;62916;50.044;15.938;2023-09-08T00:42:13;9.00;;;3.80;;
74465;SDS011;62916;50.044;15.938;2023-09-08T00:44:43;3.70;;;3.20;;
74465;SDS011;62916;50.044;15.938;2023-09-08T00:47:14;4.60;;;3.70;;
74465;SDS011;62916;50.044;15.938;2023-09-08T00:49:46;3.80;;;3.40;;
74465;SDS011;62916;50.044;15.938;2023-09-08T00:52:19;4.00;;;3.60;;
74465;SDS011;62916;50.044;15.938;2023-09-08T00:54:49;3.50;;;3.20;;
74465;SDS011;62916;50.044;15.938;2023-09-08T00:57:20;3.90;;;3.30;;
74465;SDS011;62916;50.044;15.938;2023-09-08T00:59:52;4.30;;;3.90;;
74465;SDS011;62916;50.044;15.938;2023-09-08T01:02:23;4.30;;;3.40;;
74465;SDS011;62916;50.044;15.938;2023-09-08T01:04:54;4.00;;;3.60;;
74465;SDS011;62916;50.044;15.938;2023-09-08T01:07:27;3.50;;;3.20;;
74465;SDS011;62916;50.044;15.938;2023-09-08T01:10:00;3.50;;;3.10;;
74465;SDS011;62916;50.044;15.938;2023-09-08T01:12:34;4.10;;;3.60;;
74465;SDS011;62916;50.044;15.938;2023-09-08T01:15:06;4.20;;;3.70;;
74465;SDS011;62916;50.044;15.938;2023-09-08T01:17:37;4.30;;;3.80;;
74465;SDS011;62916;50.044;15.938;2023-09-08T01:20:11;3.70;;;3.30;;
74465;SDS011;62916;50.044;15.938;2023-09-08T01:22:55;4.00;;;3.30;;
74465;SDS011;62916;50.044;15.938;2023-09-08T01:25:33;4.00;;;3.50;;
74465;SDS011;62916;50.044;15.938;2023-09-08T01:28:09;3.50;;;3.20;;
74465;SDS011;62916;50.044;15.938;2023-09-08T01:30:43;3.90;;;3.50;;
74465;SDS011;62916;50.044;15.938;2023-09-08T01:33:14;4.70;;;4.30;;
74465;SDS011;62916;50.044;15.938;2023-09-08T01:35:45;3.70;;;3.30;;
74465;SDS011;62916;50.044;15.938;2023-09-08T01:38:17;3.70;;;3.40;;
74465;SDS011;62916;50.044;15.938;2023-09-08T01:40:49;4.30;;;3.20;;
74465;SDS011;62916;50.044;15.938;2023-09-08T01:43:20;3.90;;;3.10;;
74465;SDS011;62916;50.044;15.938;2023-09-08T01:45:51;4.20;;;3.50;;
74465;SDS011;62916;50.044;15.938;2023-09-08T01:48:22;4.40;;;3.80;;
74465;SDS011;62916;50.044;15.938;2023-09-08T01:50:53;3.80;;;3.20;;
74465;SDS011;62916;50.044;15.938;2023-09-08T01:53:24;4.10;;;3.40;;
74465;SDS011;62916;50.044;15.938;2023-09-08T01:55:55;3.90;;;3.50;;
74465;SDS011;62916;50.044;15.938;2023-09-08T01:58:26;4.70;;;3.60;;
74465;SDS011;62916;50.044;15.938;2023-09-08T02:00:59;4.70;;;3.30;;
74465;SDS011;62916;50.044;15.938;2023-09-08T02:03:34;3.90;;;3.60;;
74465;SDS011;62916;50.044;15.938;2023-09-08T02:06:05;5.80;;;3.90;;
74465;SDS011;62916;50.044;15.938;2023-09-08T02:08:36;3.90;;;3.30;;
74465;SDS011;62916;50.044;15.938;2023-09-08T02:11:07;3.60;;;3.30;;
74465;SDS011;62916;50.044;15.938;2023-09-08T02:13:38;5.30;;;3.70;;
74465;SDS011;62916;50.044;15.938;2023-09-08T02:16:14;4.40;;;4.00;;
74465;SDS011;62916;50.044;15.938;2023-09-08T02:18:45;3.70;;;3.20;;
74465;SDS011;62916;50.044;15.938;2023-09-08T02:21:16;3.80;;;3.40;;
74465;SDS011;62916;50.044;15.938;2023-09-08T02:23:47;4.10;;;3.70;;
74465;SDS011;62916;50.044;15.938;2023-09-08T02:26:18;4.00;;;3.60;;
74465;SDS011;62916;50.044;15.938;2023-09-08T02:28:48;4.00;;;3.40;;
74465;SDS011;62916;50.044;15.938;2023-09-08T02:31:19;5.00;;;3.40;;
74465;SDS011;62916;50.044;15.938;2023-09-08T02:33:50;6.00;;;3.40;;
74465;SDS011;62916;50.044;15.938;2023-09-08T02:36:21;4.60;;;4.00;;
74465;SDS011;62916;50.044;15.938;2023-09-08T02:38:54;6.00;;;4.10;;
74465;SDS011;62916;50.044;15.938;2023-09-08T02:41:26;4.70;;;3.50;;
74465;SDS011;62916;50.044;15.938;2023-09-08T02:43:56;4.80;;;4.00;;
74465;SDS011;62916;50.044;15.938;2023-09-08T02:46:27;4.20;;;3.80;;
74465;SDS011;62916;50.044;15.938;2023-09-08T02:48:58;5.00;;;3.90;;
74465;SDS011;62916;50.044;15.938;2023-09-08T02:51:29;3.80;;;3.40;;
74465;SDS011;62916;50.044;15.938;2023-09-08T02:54:00;4.20;;;3.70;;
74465;SDS011;62916;50.044;15.938;2023-09-08T02:56:31;4.00;;;3.40;;
74465;SDS011;62916;50.044;15.938;2023-09-08T02:59:02;4.50;;;3.60;;
74465;SDS011;62916;50.044;15.938;2023-09-08T03:01:33;4.30;;;3.50;;
74465;SDS011;62916;50.044;15.938;2023-09-08T03:04:05;4.60;;;3.90;;
74465;SDS011;62916;50.044;15.938;2023-09-08T03:06:35;4.30;;;3.70;;
74465;SDS011;62916;50.044;15.938;2023-09-08T03:09:06;4.70;;;4.20;;
74465;SDS011;62916;50.044;15.938;2023-09-08T03:11:37;4.80;;;3.70;;
74465;SDS011;62916;50.044;15.938;2023-09-08T03:14:08;5.40;;;3.80;;
74465;SDS011;62916;50.044;15.938;2023-09-08T03:16:39;4.90;;;3.60;;
74465;SDS011;62916;50.044;15.938;2023-09-08T03:19:10;4.20;;;3.50;;
74465;SDS011;62916;50.044;15.938;2023-09-08T03:21:41;4.40;;;3.50;;
74465;SDS011;62916;50.044;15.938;2023-09-08T03:24:12;4.50;;;3.70;;
74465;SDS011;62916;50.044;15.938;2023-09-08T03:26:43;4.60;;;4.20;;
74465;SDS011;62916;50.044;15.938;2023-09-08T03:29:14;3.90;;;3.50;;
74465;SDS011;62916;50.044;15.938;2023-09-08T03:31:45;6.00;;;3.70;;
74465;SDS011;62916;50.044;15.938;2023-09-08T03:34:17;5.50;;;4.10;;
74465;SDS011;62916;50.044;15.938;2023-09-08T03:36:49;4.50;;;3.50;;
74465;SDS011;62916;50.044;15.938;2023-09-08T03:39:21;4.10;;;3.70;;
74465;SDS011;62916;50.044;15.938;2023-09-08T03:41:52;4.40;;;3.70;;
74465;SDS011;62916;50.044;15.938;2023-09-08T03:44:22;4.20;;;3.80;;
74465;SDS011;62916;50.044;15.938;2023-09-08T03:46:53;4.20;;;3.80;;
74465;SDS011;62916;50.044;15.938;2023-09-08T03:49:24;5.10;;;4.70;;
74465;SDS011;62916;50.044;15.938;2023-09-08T03:51:55;4.70;;;3.60;;
74465;SDS011;62916;50.044;15.938;2023-09-08T03:54:26;5.90;;;4.00;;
74465;SDS011;62916;50.044;15.938;2023-09-08T03:56:57;8.00;;;4.00;;
74465;SDS011;62916;50.044;15.938;2023-09-08T03:59:28;4.30;;;3.90;;
74465;SDS011;62916;50.044;15.938;2023-09-08T04:01:59;4.40;;;3.90;;
74465;SDS011;62916;50.044;15.938;2023-09-08T04:04:30;5.00;;;4.50;;
74465;SDS011;62916;50.044;15.938;2023-09-08T04:07:01;4.90;;;4.10;;
74465;SDS011;62916;50.044;15.938;2023-09-08T04:09:32;4.70;;;4.00;;
74465;SDS011;62916;50.044;15.938;2023-09-08T04:12:03;4.80;;;4.00;;
74465;SDS011;62916;50.044;15.938;2023-09-08T04:14:37;5.20;;;4.30;;
74465;SDS011;62916;50.044;15.938;2023-09-08T04:17:08;4.30;;;3.90;;
74465;SDS011;62916;50.044;15.938;2023-09-08T04:19:39;5.50;;;3.70;;
74465;SDS011;62916;50.044;15.938;2023-09-08T04:22:10;7.90;;;4.30;;
74465;SDS011;62916;50.044;15.938;2023-09-08T04:24:41;17.40;;;5.60;;
74465;SDS011;62916;50.044;15.938;2023-09-08T04:27:12;26.20;;;5.90;;
74465;SDS011;62916;50.044;15.938;2023-09-08T04:29:43;27.10;;;5.60;;
74465;SDS011;62916;50.044;15.938;2023-09-08T04:32:14;30.40;;;6.00;;
74465;SDS011;62916;50.044;15.938;2023-09-08T04:34:44;20.20;;;5.80;;
74465;SDS011;62916;50.044;15.938;2023-09-08T04:37:16;21.90;;;5.70;;
74465;SDS011;62916;50.044;15.938;2023-09-08T04:39:47;21.00;;;5.40;;
74465;SDS011;62916;50.044;15.938;2023-09-08T04:42:18;22.30;;;5.30;;
74465;SDS011;62916;50.044;15.938;2023-09-08T04:44:51;14.90;;;4.70;;
74465;SDS011;62916;50.044;15.938;2023-09-08T04:47:22;15.70;;;5.30;;
74465;SDS011;62916;50.044;15.938;2023-09-08T04:49:53;16.60;;;5.20;;
74465;SDS011;62916;50.044;15.938;2023-09-08T04:52:24;14.70;;;5.20;;
74465;SDS011;62916;50.044;15.938;2023-09-08T04:54:55;9.60;;;4.50;;
74465;SDS011;62916;50.044;15.938;2023-09-08T04:57:26;10.60;;;5.20;;
74465;SDS011;62916;50.044;15.938;2023-09-08T04:59:57;10.40;;;4.10;;
74465;SDS011;62916;50.044;15.938;2023-09-08T05:02:27;11.50;;;4.70;;
74465;SDS011;62916;50.044;15.938;2023-09-08T05:04:59;8.30;;;4.60;;
74465;SDS011;62916;50.044;15.938;2023-09-08T05:07:29;10.10;;;4.50;;
74465;SDS011;62916;50.044;15.938;2023-09-08T05:10:00;8.40;;;4.50;;
74465;SDS011;62916;50.044;15.938;2023-09-08T05:12:31;8.40;;;5.50;;
74465;SDS011;62916;50.044;15.938;2023-09-08T05:15:03;7.30;;;4.50;;
74465;SDS011;62916;50.044;15.938;2023-09-08T05:17:42;9.20;;;4.70;;
74465;SDS011;62916;50.044;15.938;2023-09-08T05:20:14;6.80;;;4.40;;
74465;SDS011;62916;50.044;15.938;2023-09-08T05:22:45;7.00;;;3.90;;
74465;SDS011;62916;50.044;15.938;2023-09-08T05:25:16;7.80;;;4.40;;
74465;SDS011;62916;50.044;15.938;2023-09-08T05:27:46;6.60;;;3.90;;
74465;SDS011;62916;50.044;15.938;2023-09-08T05:30:17;7.50;;;4.30;;
74465;SDS011;62916;50.044;15.938;2023-09-08T05:32:48;6.10;;;4.20;;
74465;SDS011;62916;50.044;15.938;2023-09-08T05:35:20;5.20;;;4.10;;
74465;SDS011;62916;50.044;15.938;2023-09-08T05:37:50;5.40;;;4.30;;
74465;SDS011;62916;50.044;15.938;2023-09-08T05:40:21;7.10;;;4.50;;
74465;SDS011;62916;50.044;15.938;2023-09-08T05:42:54;7.60;;;3.90;;
74465;SDS011;62916;50.044;15.938;2023-09-08T05:45:25;4.50;;;4.10;;
74465;SDS011;62916;50.044;15.938;2023-09-08T05:47:56;6.50;;;4.50;;
74465;SDS011;62916;50.044;15.938;2023-09-08T05:50:27;4.80;;;3.90;;
74465;SDS011;62916;50.044;15.938;2023-09-08T05:52:57;5.10;;;4.60;;
74465;SDS011;62916;50.044;15.938;2023-09-08T05:55:28;6.30;;;4.30;;
74465;SDS011;62916;50.044;15.938;2023-09-08T05:57:59;4.30;;;3.70;;
74465;SDS011;62916;50.044;15.938;2023-09-08T06:00:30;5.00;;;4.00;;
74465;SDS011;62916;50.044;15.938;2023-09-08T06:03:01;5.50;;;4.30;;
74465;SDS011;62916;50.044;15.938;2023-09-08T06:05:33;5.60;;;4.20;;
74465;SDS011;62916;50.044;15.938;2023-09-08T06:08:04;5.40;;;4.30;;
74465;SDS011;62916;50.044;15.938;2023-09-08T06:10:35;6.20;;;4.10;;
74465;SDS011;62916;50.044;15.938;2023-09-08T06:13:07;5.40;;;4.00;;
74465;SDS011;62916;50.044;15.938;2023-09-08T06:15:38;4.30;;;3.80;;
74465;SDS011;62916;50.044;15.938;2023-09-08T06:18:10;6.80;;;4.20;;
74465;SDS011;62916;50.044;15.938;2023-09-08T06:20:46;4.70;;;3.80;;
74465;SDS011;62916;50.044;15.938;2023-09-08T06:23:19;5.50;;;3.80;;
74465;SDS011;62916;50.044;15.938;2023-09-08T06:25:50;5.20;;;4.70;;
74465;SDS011;62916;50.044;15.938;2023-09-08T06:28:27;7.10;;;4.30;;
74465;SDS011;62916;50.044;15.938;2023-09-08T06:30:58;5.90;;;4.10;;
74465;SDS011;62916;50.044;15.938;2023-09-08T06:33:29;4.70;;;4.00;;
74465;SDS011;62916;50.044;15.938;2023-09-08T06:36:00;4.40;;;4.00;;
74465;SDS011;62916;50.044;15.938;2023-09-08T06:38:31;5.50;;;4.40;;
74465;SDS011;62916;50.044;15.938;2023-09-08T06:41:07;5.60;;;4.00;;
74465;SDS011;62916;50.044;15.938;2023-09-08T06:43:39;4.40;;;3.60;;
74465;SDS011;62916;50.044;15.938;2023-09-08T06:46:11;5.30;;;3.90;;
74465;SDS011;62916;50.044;15.938;2023-09-08T06:48:42;5.10;;;4.00;;
74465;SDS011;62916;50.044;15.938;2023-09-08T06:51:13;5.20;;;3.90;;
74465;SDS011;62916;50.044;15.938;2023-09-08T06:53:44;5.80;;;4.30;;
74465;SDS011;62916;50.044;15.938;2023-09-08T06:56:22;4.80;;;3.90;;
74465;SDS011;62916;50.044;15.938;2023-09-08T06:58:53;4.70;;;4.00;;
74465;SDS011;62916;50.044;15.938;2023-09-08T07:01:25;5.30;;;3.90;;
74465;SDS011;62916;50.044;15.938;2023-09-08T07:03:57;5.50;;;4.10;;
74465;SDS011;62916;50.044;15.938;2023-09-08T07:06:28;3.90;;;3.50;;
74465;SDS011;62916;50.044;15.938;2023-09-08T07:08:58;4.40;;;4.00;;
74465;SDS011;62916;50.044;15.938;2023-09-08T07:11:30;5.40;;;4.10;;
74465;SDS011;62916;50.044;15.938;2023-09-08T07:14:01;6.40;;;4.10;;
74465;SDS011;62916;50.044;15.938;2023-09-08T07:16:32;6.00;;;4.20;;
74465;SDS011;62916;50.044;15.938;2023-09-08T07:19:03;4.60;;;4.20;;
74465;SDS011;62916;50.044;15.938;2023-09-08T07:21:34;4.80;;;4.30;;
74465;SDS011;62916;50.044;15.938;2023-09-08T07:24:05;4.90;;;4.10;;
74465;SDS011;62916;50.044;15.938;2023-09-08T07:26:37;4.90;;;4.10;;
74465;SDS011;62916;50.044;15.938;2023-09-08T07:29:08;4.50;;;4.10;;
74465;SDS011;62916;50.044;15.938;2023-09-08T07:31:40;4.20;;;3.60;;
74465;SDS011;62916;50.044;15.938;2023-09-08T07:34:11;5.20;;;3.90;;
74465;SDS011;62916;50.044;15.938;2023-09-08T07:36:42;6.50;;;5.20;;
74465;SDS011;62916;50.044;15.938;2023-09-08T07:39:12;5.70;;;4.40;;
74465;SDS011;62916;50.044;15.938;2023-09-08T07:41:44;5.30;;;4.10;;
74465;SDS011;62916;50.044;15.938;2023-09-08T07:44:14;5.60;;;3.90;;
74465;SDS011;62916;50.044;15.938;2023-09-08T07:46:46;6.10;;;4.00;;
74465;SDS011;62916;50.044;15.938;2023-09-08T07:49:19;4.90;;;4.40;;
74465;SDS011;62916;50.044;15.938;2023-09-08T07:51:51;4.90;;;4.10;;
74465;SDS011;62916;50.044;15.938;2023-09-08T07:54:22;5.10;;;4.60;;
74465;SDS011;62916;50.044;15.938;2023-09-08T07:56:53;5.50;;;4.30;;
74465;SDS011;62916;50.044;15.938;2023-09-08T07:59:23;4.60;;;4.00;;
74465;SDS011;62916;50.044;15.938;2023-09-08T08:01:54;5.10;;;4.40;;
74465;SDS011;62916;50.044;15.938;2023-09-08T08:04:25;5.50;;;4.20;;
74465;SDS011;62916;50.044;15.938;2023-09-08T08:06:56;6.60;;;3.90;;
74465;SDS011;62916;50.044;15.938;2023-09-08T08:09:27;3.80;;;3.40;;
74465;SDS011;62916;50.044;15.938;2023-09-08T08:11:58;4.30;;;3.90;;
74465;SDS011;62916;50.044;15.938;2023-09-08T08:14:30;4.80;;;4.10;;
74465;SDS011;62916;50.044;15.938;2023-09-08T08:17:01;4.90;;;4.20;;
74465;SDS011;62916;50.044;15.938;2023-09-08T08:19:32;4.30;;;3.90;;
74465;SDS011;62916;50.044;15.938;2023-09-08T08:22:03;5.70;;;4.10;;
74465;SDS011;62916;50.044;15.938;2023-09-08T08:24:34;4.90;;;3.80;;
74465;SDS011;62916;50.044;15.938;2023-09-08T08:27:05;4.20;;;3.80;;
74465;SDS011;62916;50.044;15.938;2023-09-08T08:29:36;5.00;;;4.00;;
74465;SDS011;62916;50.044;15.938;2023-09-08T08:32:07;5.20;;;4.40;;
74465;SDS011;62916;50.044;15.938;2023-09-08T08:34:40;4.00;;;3.60;;
74465;SDS011;62916;50.044;15.938;2023-09-08T08:37:10;5.10;;;3.80;;
74465;SDS011;62916;50.044;15.938;2023-09-08T08:39:41;4.30;;;3.50;;
74465;SDS011;62916;50.044;15.938;2023-09-08T08:42:12;5.70;;;3.70;;
74465;SDS011;62916;50.044;15.938;2023-09-08T08:44:43;4.70;;;3.70;;
74465;SDS011;62916;50.044;15.938;2023-09-08T08:47:14;4.30;;;3.90;;
74465;SDS011;62916;50.044;15.938;2023-09-08T08:49:46;4.10;;;3.60;;
74465;SDS011;62916;50.044;15.938;2023-09-08T08:52:20;4.30;;;3.70;;
74465;SDS011;62916;50.044;15.938;2023-09-08T08:54:51;4.20;;;3.80;;
74465;SDS011;62916;50.044;15.938;2023-09-08T08:57:23;4.40;;;3.60;;
74465;SDS011;62916;50.044;15.938;2023-09-08T08:59:55;4.90;;;4.30;;
74465;SDS011;62916;50.044;15.938;2023-09-08T09:02:27;4.60;;;3.40;;
74465;SDS011;62916;50.044;15.938;2023-09-08T09:04:59;4.30;;;3.70;;
74465;SDS011;62916;50.044;15.938;2023-09-08T09:07:29;5.10;;;4.20;;
74465;SDS011;62916;50.044;15.938;2023-09-08T09:10:01;4.10;;;3.70;;
74465;SDS011;62916;50.044;15.938;2023-09-08T09:12:34;4.40;;;4.00;;
74465;SDS011;62916;50.044;15.938;2023-09-08T09:15:08;3.90;;;3.50;;
74465;SDS011;62916;50.044;15.938;2023-09-08T09:17:40;4.50;;;4.10;;
74465;SDS011;62916;50.044;15.938;2023-09-08T09:20:14;4.10;;;3.50;;
74465;SDS011;62916;50.044;15.938;2023-09-08T09:22:47;4.50;;;3.90;;
74465;SDS011;62916;50.044;15.938;2023-09-08T09:25:22;4.00;;;3.70;;
74465;SDS011;62916;50.044;15.938;2023-09-08T09:27:55;5.10;;;3.60;;
74465;SDS011;62916;50.044;15.938;2023-09-08T09:30:27;4.10;;;3.70;;
74465;SDS011;62916;50.044;15.938;2023-09-08T09:33:15;4.60;;;3.90;;
74465;SDS011;62916;50.044;15.938;2023-09-08T09:35:47;4.60;;;4.00;;
74465;SDS011;62916;50.044;15.938;2023-09-08T09:38:20;4.40;;;4.00;;
74465;SDS011;62916;50.044;15.938;2023-09-08T09:40:55;4.20;;;3.80;;
74465;SDS011;62916;50.044;15.938;2023-09-08T09:43:27;4.60;;;3.90;;
74465;SDS011;62916;50.044;15.938;2023-09-08T09:45:59;4.10;;;3.40;;
74465;SDS011;62916;50.044;15.938;2023-09-08T09:48:31;4.10;;;3.60;;
74465;SDS011;62916;50.044;15.938;2023-09-08T09:51:15;5.70;;;3.90;;
74465;SDS011;62916;50.044;15.938;2023-09-08T09:53:47;4.10;;;3.70;;
74465;SDS011;62916;50.044;15.938;2023-09-08T09:56:20;4.20;;;3.80;;
74465;SDS011;62916;50.044;15.938;2023-09-08T09:58:54;4.90;;;3.70;;
74465;SDS011;62916;50.044;15.938;2023-09-08T10:01:25;3.80;;;3.30;;
74465;SDS011;62916;50.044;15.938;2023-09-08T10:03:57;4.40;;;3.90;;
74465;SDS011;62916;50.044;15.938;2023-09-08T10:06:31;3.80;;;3.40;;
74465;SDS011;62916;50.044;15.938;2023-09-08T10:09:04;3.90;;;3.50;;
74465;SDS011;62916;50.044;15.938;2023-09-08T10:11:42;4.90;;;3.90;;
74465;SDS011;62916;50.044;15.938;2023-09-08T10:14:17;3.50;;;3.20;;
74465;SDS011;62916;50.044;15.938;2023-09-08T10:16:50;4.30;;;3.30;;
74465;SDS011;62916;50.044;15.938;2023-09-08T10:19:26;4.60;;;3.70;;
74465;SDS011;62916;50.044;15.938;2023-09-08T10:21:59;4.90;;;3.70;;
74465;SDS011;62916;50.044;15.938;2023-09-08T10:24:32;4.00;;;3.20;;
74465;SDS011;62916;50.044;15.938;2023-09-08T10:27:07;4.00;;;3.30;;
74465;SDS011;62916;50.044;15.938;2023-09-08T10:29:40;4.50;;;3.50;;
74465;SDS011;62916;50.044;15.938;2023-09-08T10:32:10;4.00;;;3.40;;
74465;SDS011;62916;50.044;15.938;2023-09-08T10:34:43;4.30;;;3.80;;
74465;SDS011;62916;50.044;15.938;2023-09-08T10:37:21;4.10;;;3.40;;
74465;SDS011;62916;50.044;15.938;2023-09-08T10:39:55;3.90;;;3.40;;
74465;SDS011;62916;50.044;15.938;2023-09-08T10:42:46;4.70;;;3.60;;
74465;SDS011;62916;50.044;15.938;2023-09-08T10:45:18;3.70;;;3.30;;
74465;SDS011;62916;50.044;15.938;2023-09-08T10:47:56;3.70;;;3.20;;
74465;SDS011;62916;50.044;15.938;2023-09-08T10:50:30;4.60;;;3.10;;
74465;SDS011;62916;50.044;15.938;2023-09-08T10:53:05;4.70;;;3.30;;
74465;SDS011;62916;50.044;15.938;2023-09-08T10:55:43;3.90;;;3.20;;
74465;SDS011;62916;50.044;15.938;2023-09-08T10:58:37;4.30;;;3.40;;
74465;SDS011;62916;50.044;15.938;2023-09-08T11:01:15;4.00;;;3.50;;
74465;SDS011;62916;50.044;15.938;2023-09-08T11:03:50;4.00;;;3.50;;
74465;SDS011;62916;50.044;15.938;2023-09-08T11:06:22;4.20;;;3.10;;
74465;SDS011;62916;50.044;15.938;2023-09-08T11:08:58;4.30;;;3.00;;
74465;SDS011;62916;50.044;15.938;2023-09-08T11:11:37;4.40;;;3.70;;
74465;SDS011;62916;50.044;15.938;2023-09-08T11:14:09;3.90;;;3.20;;
74465;SDS011;62916;50.044;15.938;2023-09-08T11:16:40;3.70;;;3.20;;
74465;SDS011;62916;50.044;15.938;2023-09-08T11:19:11;3.80;;;3.40;;
74465;SDS011;62916;50.044;15.938;2023-09-08T11:21:42;3.40;;;3.00;;
74465;SDS011;62916;50.044;15.938;2023-09-08T11:24:14;3.50;;;3.10;;
74465;SDS011;62916;50.044;15.938;2023-09-08T11:26:46;4.50;;;3.30;;
74465;SDS011;62916;50.044;15.938;2023-09-08T11:29:19;4.40;;;3.30;;
74465;SDS011;62916;50.044;15.938;2023-09-08T11:31:52;4.50;;;3.60;;
74465;SDS011;62916;50.044;15.938;2023-09-08T11:34:24;4.10;;;3.60;;
74465;SDS011;62916;50.044;15.938;2023-09-08T11:36:55;4.20;;;3.30;;
74465;SDS011;62916;50.044;15.938;2023-09-08T11:39:27;3.90;;;3.40;;
74465;SDS011;62916;50.044;15.938;2023-09-08T11:41:58;3.40;;;3.10;;
74465;SDS011;62916;50.044;15.938;2023-09-08T11:44:30;3.80;;;3.40;;
74465;SDS011;62916;50.044;15.938;2023-09-08T11:47:02;3.50;;;3.20;;
74465;SDS011;62916;50.044;15.938;2023-09-08T11:49:35;4.20;;;3.40;;
74465;SDS011;62916;50.044;15.938;2023-09-08T11:52:07;3.60;;;3.10;;
74465;SDS011;62916;50.044;15.938;2023-09-08T11:54:39;3.20;;;2.90;;
74465;SDS011;62916;50.044;15.938;2023-09-08T11:57:31;4.00;;;3.30;;
74465;SDS011;62916;50.044;15.938;2023-09-08T12:00:02;3.90;;;3.00;;
74465;SDS011;62916;50.044;15.938;2023-09-08T12:02:37;4.00;;;3.10;;
74465;SDS011;62916;50.044;15.938;2023-09-08T12:05:12;3.50;;;3.00;;
74465;SDS011;62916;50.044;15.938;2023-09-08T12:07:49;5.00;;;3.30;;
74465;SDS011;62916;50.044;15.938;2023-09-08T12:10:21;3.70;;;3.00;;
74465;SDS011;62916;50.044;15.938;2023-09-08T12:12:53;5.20;;;3.80;;
74465;SDS011;62916;50.044;15.938;2023-09-08T12:15:31;3.70;;;3.30;;
74465;SDS011;62916;50.044;15.938;2023-09-08T12:18:03;3.80;;;3.40;;
74465;SDS011;62916;50.044;15.938;2023-09-08T12:23:06;3.30;;;2.50;;
74465;SDS011;62916;50.044;15.938;2023-09-08T12:25:45;3.90;;;3.00;;
74465;SDS011;62916;50.044;15.938;2023-09-08T12:28:17;4.00;;;3.60;;
74465;SDS011;62916;50.044;15.938;2023-09-08T12:30:50;3.40;;;3.10;;
74465;SDS011;62916;50.044;15.938;2023-09-08T12:33:21;3.30;;;2.80;;
74465;SDS011;62916;50.044;15.938;2023-09-08T12:35:55;3.60;;;3.00;;
74465;SDS011;62916;50.044;15.938;2023-09-08T12:38:30;3.20;;;2.80;;
74465;SDS011;62916;50.044;15.938;2023-09-08T12:41:01;3.60;;;2.90;;
74465;SDS011;62916;50.044;15.938;2023-09-08T12:43:32;4.30;;;3.10;;
74465;SDS011;62916;50.044;15.938;2023-09-08T12:46:03;3.80;;;3.20;;
74465;SDS011;62916;50.044;15.938;2023-09-08T12:48:34;3.30;;;3.00;;
74465;SDS011;62916;50.044;15.938;2023-09-08T12:51:05;3.80;;;3.30;;
74465;SDS011;62916;50.044;15.938;2023-09-08T12:53:36;3.90;;;2.90;;
74465;SDS011;62916;50.044;15.938;2023-09-08T12:56:07;4.70;;;3.50;;
74465;SDS011;62916;50.044;15.938;2023-09-08T12:58:38;3.40;;;2.70;;
74465;SDS011;62916;50.044;15.938;2023-09-08T13:01:09;3.60;;;3.10;;
74465;SDS011;62916;50.044;15.938;2023-09-08T13:03:39;4.00;;;2.90;;
74465;SDS011;62916;50.044;15.938;2023-09-08T13:06:10;3.70;;;3.30;;
74465;SDS011;62916;50.044;15.938;2023-09-08T13:08:41;4.60;;;2.90;;
74465;SDS011;62916;50.044;15.938;2023-09-08T13:11:12;4.00;;;3.40;;
74465;SDS011;62916;50.044;15.938;2023-09-08T13:13:44;3.80;;;3.20;;
74465;SDS011;62916;50.044;15.938;2023-09-08T13:16:14;3.80;;;3.10;;
74465;SDS011;62916;50.044;15.938;2023-09-08T13:18:46;3.80;;;3.00;;
74465;SDS011;62916;50.044;15.938;2023-09-08T13:21:17;3.50;;;3.20;;
74465;SDS011;62916;50.044;15.938;2023-09-08T13:23:48;3.90;;;2.90;;
74465;SDS011;62916;50.044;15.938;2023-09-08T13:26:19;5.30;;;3.20;;
74465;SDS011;62916;50.044;15.938;2023-09-08T13:28:50;3.60;;;3.00;;
74465;SDS011;62916;50.044;15.938;2023-09-08T13:31:21;3.30;;;2.90;;
74465;SDS011;62916;50.044;15.938;2023-09-08T13:33:52;4.10;;;3.30;;
74465;SDS011;62916;50.044;15.938;2023-09-08T13:36:23;4.70;;;3.50;;
74465;SDS011;62916;50.044;15.938;2023-09-08T13:38:54;3.70;;;3.40;;
74465;SDS011;62916;50.044;15.938;2023-09-08T13:41:29;3.80;;;3.00;;
74465;SDS011;62916;50.044;15.938;2023-09-08T13:44:15;5.30;;;3.40;;
74465;SDS011;62916;50.044;15.938;2023-09-08T13:46:47;4.10;;;3.30;;
74465;SDS011;62916;50.044;15.938;2023-09-08T13:49:19;4.50;;;3.30;;
74465;SDS011;62916;50.044;15.938;2023-09-08T13:51:53;3.70;;;3.00;;
74465;SDS011;62916;50.044;15.938;2023-09-08T13:54:28;3.60;;;3.30;;
74465;SDS011;62916;50.044;15.938;2023-09-08T13:57:01;3.70;;;3.20;;
74465;SDS011;62916;50.044;15.938;2023-09-08T13:59:35;4.00;;;3.20;;
74465;SDS011;62916;50.044;15.938;2023-09-08T14:02:10;4.90;;;3.70;;
74465;SDS011;62916;50.044;15.938;2023-09-08T14:04:43;5.00;;;3.30;;
74465;SDS011;62916;50.044;15.938;2023-09-08T14:07:16;3.80;;;2.90;;
74465;SDS011;62916;50.044;15.938;2023-09-08T14:09:54;5.00;;;3.10;;
74465;SDS011;62916;50.044;15.938;2023-09-08T14:12:29;4.00;;;3.40;;
74465;SDS011;62916;50.044;15.938;2023-09-08T14:15:02;3.30;;;3.00;;
74465;SDS011;62916;50.044;15.938;2023-09-08T14:17:35;4.40;;;3.90;;
74465;SDS011;62916;50.044;15.938;2023-09-08T14:20:07;4.80;;;3.20;;
74465;SDS011;62916;50.044;15.938;2023-09-08T14:22:40;3.30;;;2.90;;
74465;SDS011;62916;50.044;15.938;2023-09-08T14:25:10;3.40;;;2.90;;
74465;SDS011;62916;50.044;15.938;2023-09-08T14:27:41;4.40;;;3.50;;
74465;SDS011;62916;50.044;15.938;2023-09-08T14:30:14;4.50;;;3.60;;
74465;SDS011;62916;50.044;15.938;2023-09-08T14:32:45;4.00;;;3.30;;
74465;SDS011;62916;50.044;15.938;2023-09-08T14:35:16;5.10;;;3.40;;
74465;SDS011;62916;50.044;15.938;2023-09-08T14:37:47;4.30;;;3.70;;
74465;SDS011;62916;50.044;15.938;2023-09-08T14:40:18;3.80;;;3.20;;
74465;SDS011;62916;50.044;15.938;2023-09-08T14:42:51;4.10;;;3.60;;
74465;SDS011;62916;50.044;15.938;2023-09-08T14:45:22;3.60;;;3.20;;
74465;SDS011;62916;50.044;15.938;2023-09-08T14:47:54;3.70;;;3.30;;
74465;SDS011;62916;50.044;15.938;2023-09-08T14:52:57;4.60;;;3.50;;
74465;SDS011;62916;50.044;15.938;2023-09-08T14:55:28;3.80;;;3.40;;
74465;SDS011;62916;50.044;15.938;2023-09-08T14:57:59;3.80;;;3.40;;
74465;SDS011;62916;50.044;15.938;2023-09-08T15:00:30;4.20;;;3.40;;
74465;SDS011;62916;50.044;15.938;2023-09-08T15:03:01;4.10;;;3.20;;
74465;SDS011;62916;50.044;15.938;2023-09-08T15:05:33;4.10;;;3.70;;
74465;SDS011;62916;50.044;15.938;2023-09-08T15:08:04;5.10;;;3.50;;